If you wish to contribute or participate in the discussions about articles you are invited to join SKYbrary as a registered user

 Actions

Lyon-Bron Airport

From SKYbrary Wiki

LFLY
Airport
ICAO: LFLY – IATA: LYN
Summary
Name Lyon-Bron Airport
Region Europe
Territory France FR.gif
Location , Rhone-Alpes
Serving Lyon
Elevation 200.863 m
659 ft
659 ft200.863 m
Type medium airport
Coordinates 45° 43' 37.82" N, 4° 56' 39.39" E
Runways
Designator Length Width Surface ROPS
16/34 1820 m5,971.129 ft
45 m147.638 ft
ASP yes/yes


METAR
Observation LFLY 260100Z AUTO 00000KT 5000 BR NSC 06/05 Q1019 NOSIG
Station Lyon / Bron
Date/Time 26 January 2020 01:00:00
Wind direction
Wind speed 00 kts
Lowest cloud amount nil significant cloud
Temperature 6°C
Dew point 5°C
Humidity 93%
QNH 1019 hPa
Weather condition n/a